sensor_id;sensor_type;location;lat;lon;timestamp;P1;durP1;ratioP1;P2;durP2;ratioP2
10244;SDS011;5167;52.164;10.530;2023-02-13T00:01:34;13.00;;;6.60;;
10244;SDS011;5167;52.164;10.530;2023-02-13T00:04:00;12.77;;;6.47;;
10244;SDS011;5167;52.164;10.530;2023-02-13T00:06:25;12.33;;;7.13;;
10244;SDS011;5167;52.164;10.530;2023-02-13T00:08:51;12.47;;;6.17;;
10244;SDS011;5167;52.164;10.530;2023-02-13T00:11:17;15.83;;;8.53;;
10244;SDS011;5167;52.164;10.530;2023-02-13T00:13:44;12.40;;;6.90;;
10244;SDS011;5167;52.164;10.530;2023-02-13T00:16:10;17.57;;;8.77;;
10244;SDS011;5167;52.164;10.530;2023-02-13T00:18:36;18.10;;;9.93;;
10244;SDS011;5167;52.164;10.530;2023-02-13T00:21:03;20.73;;;11.10;;
10244;SDS011;5167;52.164;10.530;2023-02-13T00:23:34;18.10;;;11.00;;
10244;SDS011;5167;52.164;10.530;2023-02-13T00:26:03;21.90;;;11.43;;
10244;SDS011;5167;52.164;10.530;2023-02-13T00:28:34;17.03;;;9.57;;
10244;SDS011;5167;52.164;10.530;2023-02-13T00:31:07;15.47;;;8.87;;
10244;SDS011;5167;52.164;10.530;2023-02-13T00:33:35;19.80;;;10.47;;
10244;SDS011;5167;52.164;10.530;2023-02-13T00:36:05;20.37;;;11.03;;
10244;SDS011;5167;52.164;10.530;2023-02-13T00:38:32;22.57;;;11.03;;
10244;SDS011;5167;52.164;10.530;2023-02-13T00:40:58;19.17;;;10.80;;
10244;SDS011;5167;52.164;10.530;2023-02-13T00:43:24;19.93;;;10.27;;
10244;SDS011;5167;52.164;10.530;2023-02-13T00:45:50;14.73;;;8.00;;
10244;SDS011;5167;52.164;10.530;2023-02-13T00:48:15;15.00;;;7.90;;
10244;SDS011;5167;52.164;10.530;2023-02-13T00:50:41;12.63;;;7.23;;
10244;SDS011;5167;52.164;10.530;2023-02-13T00:53:07;10.47;;;6.30;;
10244;SDS011;5167;52.164;10.530;2023-02-13T00:55:32;15.30;;;7.20;;
10244;SDS011;5167;52.164;10.530;2023-02-13T00:57:59;15.67;;;7.37;;
10244;SDS011;5167;52.164;10.530;2023-02-13T01:00:25;23.30;;;10.37;;
10244;SDS011;5167;52.164;10.530;2023-02-13T01:02:51;20.07;;;6.77;;
10244;SDS011;5167;52.164;10.530;2023-02-13T01:05:17;20.37;;;7.90;;
10244;SDS011;5167;52.164;10.530;2023-02-13T01:07:43;15.60;;;7.80;;
10244;SDS011;5167;52.164;10.530;2023-02-13T01:10:08;18.33;;;7.53;;
10244;SDS011;5167;52.164;10.530;2023-02-13T01:12:34;17.17;;;7.40;;
10244;SDS011;5167;52.164;10.530;2023-02-13T01:15:00;14.07;;;7.47;;
10244;SDS011;5167;52.164;10.530;2023-02-13T01:17:26;15.87;;;6.37;;
10244;SDS011;5167;52.164;10.530;2023-02-13T01:19:51;13.73;;;7.57;;
10244;SDS011;5167;52.164;10.530;2023-02-13T01:22:17;15.00;;;7.67;;
10244;SDS011;5167;52.164;10.530;2023-02-13T01:24:43;19.77;;;10.17;;
10244;SDS011;5167;52.164;10.530;2023-02-13T01:27:08;14.13;;;7.17;;
10244;SDS011;5167;52.164;10.530;2023-02-13T01:29:34;15.47;;;7.37;;
10244;SDS011;5167;52.164;10.530;2023-02-13T01:31:59;18.70;;;7.40;;
10244;SDS011;5167;52.164;10.530;2023-02-13T01:34:31;15.83;;;6.70;;
10244;SDS011;5167;52.164;10.530;2023-02-13T01:36:59;14.50;;;7.10;;
10244;SDS011;5167;52.164;10.530;2023-02-13T01:39:24;15.60;;;7.13;;
10244;SDS011;5167;52.164;10.530;2023-02-13T01:41:50;14.37;;;7.23;;
10244;SDS011;5167;52.164;10.530;2023-02-13T01:47:13;16.10;;;7.30;;
10244;SDS011;5167;52.164;10.530;2023-02-13T01:49:43;15.27;;;6.60;;
10244;SDS011;5167;52.164;10.530;2023-02-13T01:52:11;12.70;;;6.60;;
10244;SDS011;5167;52.164;10.530;2023-02-13T01:54:37;15.17;;;6.93;;
10244;SDS011;5167;52.164;10.530;2023-02-13T01:57:04;12.33;;;6.63;;
10244;SDS011;5167;52.164;10.530;2023-02-13T01:59:39;12.43;;;6.17;;
10244;SDS011;5167;52.164;10.530;2023-02-13T02:02:11;14.87;;;6.33;;
10244;SDS011;5167;52.164;10.530;2023-02-13T02:04:37;13.37;;;6.30;;
10244;SDS011;5167;52.164;10.530;2023-02-13T02:07:06;10.50;;;5.67;;
10244;SDS011;5167;52.164;10.530;2023-02-13T02:09:39;14.40;;;6.50;;
10244;SDS011;5167;52.164;10.530;2023-02-13T02:12:21;12.50;;;5.80;;
10244;SDS011;5167;52.164;10.530;2023-02-13T02:14:56;13.17;;;5.73;;
10244;SDS011;5167;52.164;10.530;2023-02-13T02:17:24;16.87;;;6.90;;
10244;SDS011;5167;52.164;10.530;2023-02-13T02:45:15;16.40;;;7.00;;
10244;SDS011;5167;52.164;10.530;2023-02-13T02:47:54;12.40;;;6.13;;
10244;SDS011;5167;52.164;10.530;2023-02-13T02:56:01;13.43;;;6.40;;
10244;SDS011;5167;52.164;10.530;2023-02-13T02:58:51;16.57;;;7.37;;
10244;SDS011;5167;52.164;10.530;2023-02-13T03:01:37;14.20;;;6.40;;
10244;SDS011;5167;52.164;10.530;2023-02-13T03:04:27;17.57;;;7.47;;
10244;SDS011;5167;52.164;10.530;2023-02-13T03:07:19;11.43;;;6.23;;
10244;SDS011;5167;52.164;10.530;2023-02-13T03:09:52;15.57;;;7.10;;
10244;SDS011;5167;52.164;10.530;2023-02-13T03:16:00;15.10;;;7.47;;
10244;SDS011;5167;52.164;10.530;2023-02-13T03:18:46;19.20;;;7.70;;
10244;SDS011;5167;52.164;10.530;2023-02-13T03:36:28;17.47;;;7.63;;
10244;SDS011;5167;52.164;10.530;2023-02-13T03:42:05;15.67;;;7.70;;
10244;SDS011;5167;52.164;10.530;2023-02-13T03:44:36;15.13;;;7.30;;
10244;SDS011;5167;52.164;10.530;2023-02-13T03:47:34;15.93;;;7.30;;
10244;SDS011;5167;52.164;10.530;2023-02-13T03:50:00;13.60;;;6.57;;
10244;SDS011;5167;52.164;10.530;2023-02-13T03:52:34;13.60;;;7.03;;
10244;SDS011;5167;52.164;10.530;2023-02-13T03:55:07;14.80;;;6.70;;
10244;SDS011;5167;52.164;10.530;2023-02-13T03:57:53;11.37;;;6.67;;
10244;SDS011;5167;52.164;10.530;2023-02-13T04:00:42;13.60;;;6.50;;
10244;SDS011;5167;52.164;10.530;2023-02-13T04:03:15;14.13;;;6.33;;
10244;SDS011;5167;52.164;10.530;2023-02-13T04:05:57;12.97;;;6.77;;
10244;SDS011;5167;52.164;10.530;2023-02-13T04:08:27;13.17;;;6.63;;
10244;SDS011;5167;52.164;10.530;2023-02-13T04:11:07;12.57;;;6.33;;
10244;SDS011;5167;52.164;10.530;2023-02-13T04:16:17;15.67;;;6.97;;
10244;SDS011;5167;52.164;10.530;2023-02-13T04:18:48;13.40;;;6.10;;
10244;SDS011;5167;52.164;10.530;2023-02-13T04:21:15;20.77;;;7.60;;
10244;SDS011;5167;52.164;10.530;2023-02-13T04:23:41;12.70;;;6.00;;
10244;SDS011;5167;52.164;10.530;2023-02-13T04:26:08;13.90;;;6.20;;
10244;SDS011;5167;52.164;10.530;2023-02-13T04:28:40;12.47;;;6.17;;
10244;SDS011;5167;52.164;10.530;2023-02-13T04:31:06;13.57;;;6.37;;
10244;SDS011;5167;52.164;10.530;2023-02-13T04:33:32;12.03;;;6.30;;
10244;SDS011;5167;52.164;10.530;2023-02-13T04:35:57;13.33;;;6.47;;
10244;SDS011;5167;52.164;10.530;2023-02-13T04:38:23;14.67;;;6.67;;
10244;SDS011;5167;52.164;10.530;2023-02-13T04:40:48;14.70;;;6.63;;
10244;SDS011;5167;52.164;10.530;2023-02-13T04:43:15;17.30;;;7.10;;
10244;SDS011;5167;52.164;10.530;2023-02-13T04:45:40;13.37;;;7.17;;
10244;SDS011;5167;52.164;10.530;2023-02-13T04:48:06;11.07;;;6.20;;
10244;SDS011;5167;52.164;10.530;2023-02-13T04:50:32;15.47;;;6.53;;
10244;SDS011;5167;52.164;10.530;2023-02-13T04:53:01;14.33;;;6.00;;
10244;SDS011;5167;52.164;10.530;2023-02-13T04:55:27;11.60;;;6.27;;
10244;SDS011;5167;52.164;10.530;2023-02-13T04:57:53;13.27;;;6.20;;
10244;SDS011;5167;52.164;10.530;2023-02-13T05:00:20;13.70;;;6.57;;
10244;SDS011;5167;52.164;10.530;2023-02-13T05:02:50;11.77;;;6.23;;
10244;SDS011;5167;52.164;10.530;2023-02-13T05:05:15;13.23;;;6.80;;
10244;SDS011;5167;52.164;10.530;2023-02-13T05:07:42;16.33;;;6.53;;
10244;SDS011;5167;52.164;10.530;2023-02-13T05:10:08;14.07;;;7.50;;
10244;SDS011;5167;52.164;10.530;2023-02-13T05:12:35;11.47;;;5.87;;
10244;SDS011;5167;52.164;10.530;2023-02-13T05:15:01;15.93;;;6.47;;
10244;SDS011;5167;52.164;10.530;2023-02-13T05:17:27;10.40;;;6.10;;
10244;SDS011;5167;52.164;10.530;2023-02-13T05:19:52;17.43;;;6.77;;
10244;SDS011;5167;52.164;10.530;2023-02-13T05:22:18;10.37;;;5.83;;
10244;SDS011;5167;52.164;10.530;2023-02-13T05:25:02;16.87;;;6.87;;
10244;SDS011;5167;52.164;10.530;2023-02-13T05:27:28;12.07;;;6.27;;
10244;SDS011;5167;52.164;10.530;2023-02-13T05:29:54;10.37;;;5.93;;
10244;SDS011;5167;52.164;10.530;2023-02-13T05:32:19;11.60;;;6.17;;
10244;SDS011;5167;52.164;10.530;2023-02-13T05:34:45;13.57;;;5.80;;
10244;SDS011;5167;52.164;10.530;2023-02-13T05:37:11;12.53;;;5.30;;
10244;SDS011;5167;52.164;10.530;2023-02-13T05:39:39;12.53;;;6.20;;
10244;SDS011;5167;52.164;10.530;2023-02-13T05:42:05;11.83;;;6.03;;
10244;SDS011;5167;52.164;10.530;2023-02-13T05:44:31;13.07;;;5.73;;
10244;SDS011;5167;52.164;10.530;2023-02-13T05:46:56;12.97;;;5.83;;
10244;SDS011;5167;52.164;10.530;2023-02-13T05:49:22;12.33;;;6.23;;
10244;SDS011;5167;52.164;10.530;2023-02-13T05:51:48;11.63;;;5.27;;
10244;SDS011;5167;52.164;10.530;2023-02-13T05:54:16;13.53;;;5.80;;
10244;SDS011;5167;52.164;10.530;2023-02-13T05:56:41;11.03;;;5.37;;
10244;SDS011;5167;52.164;10.530;2023-02-13T05:59:07;12.00;;;5.20;;
10244;SDS011;5167;52.164;10.530;2023-02-13T06:01:33;12.33;;;6.60;;
10244;SDS011;5167;52.164;10.530;2023-02-13T06:03:58;12.93;;;5.13;;
10244;SDS011;5167;52.164;10.530;2023-02-13T06:06:25;12.37;;;5.30;;
10244;SDS011;5167;52.164;10.530;2023-02-13T06:08:51;11.53;;;5.00;;
10244;SDS011;5167;52.164;10.530;2023-02-13T06:11:16;11.03;;;5.03;;
10244;SDS011;5167;52.164;10.530;2023-02-13T06:13:42;13.13;;;6.00;;
10244;SDS011;5167;52.164;10.530;2023-02-13T06:16:08;11.90;;;4.93;;
10244;SDS011;5167;52.164;10.530;2023-02-13T06:18:35;13.23;;;6.47;;
10244;SDS011;5167;52.164;10.530;2023-02-13T06:21:01;12.70;;;6.20;;
10244;SDS011;5167;52.164;10.530;2023-02-13T06:23:27;12.37;;;6.10;;
10244;SDS011;5167;52.164;10.530;2023-02-13T06:25:53;11.00;;;5.30;;
10244;SDS011;5167;52.164;10.530;2023-02-13T06:28:19;14.30;;;6.47;;
10244;SDS011;5167;52.164;10.530;2023-02-13T06:30:44;12.03;;;5.67;;
10244;SDS011;5167;52.164;10.530;2023-02-13T06:33:10;12.57;;;5.77;;
10244;SDS011;5167;52.164;10.530;2023-02-13T06:35:39;10.73;;;5.40;;
10244;SDS011;5167;52.164;10.530;2023-02-13T06:38:04;12.03;;;4.90;;
10244;SDS011;5167;52.164;10.530;2023-02-13T06:40:30;15.30;;;6.17;;
10244;SDS011;5167;52.164;10.530;2023-02-13T06:42:55;11.60;;;4.63;;
10244;SDS011;5167;52.164;10.530;2023-02-13T06:45:21;8.30;;;4.43;;
10244;SDS011;5167;52.164;10.530;2023-02-13T06:47:47;9.33;;;4.53;;
10244;SDS011;5167;52.164;10.530;2023-02-13T06:50:13;8.00;;;4.60;;
10244;SDS011;5167;52.164;10.530;2023-02-13T06:52:50;8.17;;;4.13;;
10244;SDS011;5167;52.164;10.530;2023-02-13T06:55:16;10.93;;;4.97;;
10244;SDS011;5167;52.164;10.530;2023-02-13T06:57:43;10.60;;;4.20;;
10244;SDS011;5167;52.164;10.530;2023-02-13T07:00:12;10.73;;;4.57;;
10244;SDS011;5167;52.164;10.530;2023-02-13T07:02:40;10.13;;;4.63;;
10244;SDS011;5167;52.164;10.530;2023-02-13T07:05:06;11.30;;;4.87;;
10244;SDS011;5167;52.164;10.530;2023-02-13T07:07:33;9.43;;;4.40;;
10244;SDS011;5167;52.164;10.530;2023-02-13T07:10:00;16.00;;;4.63;;
10244;SDS011;5167;52.164;10.530;2023-02-13T07:12:26;10.93;;;4.30;;
10244;SDS011;5167;52.164;10.530;2023-02-13T07:14:52;8.50;;;4.03;;
10244;SDS011;5167;52.164;10.530;2023-02-13T07:17:17;7.83;;;3.60;;
10244;SDS011;5167;52.164;10.530;2023-02-13T07:19:43;7.97;;;3.63;;
10244;SDS011;5167;52.164;10.530;2023-02-13T07:22:09;7.27;;;3.77;;
10244;SDS011;5167;52.164;10.530;2023-02-13T07:24:34;6.13;;;2.90;;
10244;SDS011;5167;52.164;10.530;2023-02-13T07:27:02;7.07;;;3.77;;
10244;SDS011;5167;52.164;10.530;2023-02-13T07:29:28;8.47;;;4.00;;
10244;SDS011;5167;52.164;10.530;2023-02-13T07:31:54;6.13;;;3.50;;
10244;SDS011;5167;52.164;10.530;2023-02-13T07:34:20;7.13;;;3.67;;
10244;SDS011;5167;52.164;10.530;2023-02-13T07:36:45;6.10;;;3.50;;
10244;SDS011;5167;52.164;10.530;2023-02-13T07:39:11;8.00;;;3.83;;
10244;SDS011;5167;52.164;10.530;2023-02-13T07:41:36;11.00;;;3.87;;
10244;SDS011;5167;52.164;10.530;2023-02-13T07:44:02;7.90;;;3.97;;
10244;SDS011;5167;52.164;10.530;2023-02-13T07:46:27;10.07;;;4.07;;
10244;SDS011;5167;52.164;10.530;2023-02-13T07:48:53;7.17;;;4.00;;
10244;SDS011;5167;52.164;10.530;2023-02-13T07:51:19;9.97;;;4.53;;
10244;SDS011;5167;52.164;10.530;2023-02-13T07:53:48;10.53;;;4.47;;
10244;SDS011;5167;52.164;10.530;2023-02-13T07:56:14;10.77;;;5.00;;
10244;SDS011;5167;52.164;10.530;2023-02-13T07:58:40;9.47;;;4.70;;
10244;SDS011;5167;52.164;10.530;2023-02-13T08:01:06;13.07;;;5.37;;
10244;SDS011;5167;52.164;10.530;2023-02-13T08:03:34;11.63;;;6.30;;
10244;SDS011;5167;52.164;10.530;2023-02-13T08:06:00;10.73;;;5.43;;
10244;SDS011;5167;52.164;10.530;2023-02-13T08:08:26;9.63;;;5.13;;
10244;SDS011;5167;52.164;10.530;2023-02-13T08:10:51;8.57;;;4.93;;
10244;SDS011;5167;52.164;10.530;2023-02-13T08:13:36;11.20;;;4.83;;
10244;SDS011;5167;52.164;10.530;2023-02-13T08:16:02;7.97;;;4.37;;
10244;SDS011;5167;52.164;10.530;2023-02-13T08:18:28;8.47;;;4.30;;
10244;SDS011;5167;52.164;10.530;2023-02-13T08:20:53;9.03;;;5.43;;
10244;SDS011;5167;52.164;10.530;2023-02-13T08:23:19;10.07;;;4.57;;
10244;SDS011;5167;52.164;10.530;2023-02-13T08:25:45;9.77;;;5.10;;
10244;SDS011;5167;52.164;10.530;2023-02-13T08:28:12;7.83;;;4.40;;
10244;SDS011;5167;52.164;10.530;2023-02-13T08:30:38;11.37;;;5.63;;
10244;SDS011;5167;52.164;10.530;2023-02-13T08:33:03;9.73;;;5.53;;
10244;SDS011;5167;52.164;10.530;2023-02-13T08:35:29;6.83;;;3.60;;
10244;SDS011;5167;52.164;10.530;2023-02-13T08:37:55;6.70;;;3.70;;
10244;SDS011;5167;52.164;10.530;2023-02-13T08:40:21;5.57;;;3.67;;
10244;SDS011;5167;52.164;10.530;2023-02-13T08:42:47;6.07;;;3.43;;
10244;SDS011;5167;52.164;10.530;2023-02-13T08:45:13;5.80;;;3.37;;
10244;SDS011;5167;52.164;10.530;2023-02-13T08:47:38;8.77;;;3.70;;
10244;SDS011;5167;52.164;10.530;2023-02-13T08:50:04;7.73;;;4.00;;
10244;SDS011;5167;52.164;10.530;2023-02-13T08:52:30;5.97;;;3.40;;
10244;SDS011;5167;52.164;10.530;2023-02-13T08:54:56;6.47;;;3.50;;
10244;SDS011;5167;52.164;10.530;2023-02-13T08:57:21;4.77;;;3.40;;
10244;SDS011;5167;52.164;10.530;2023-02-13T08:59:47;6.80;;;3.10;;
10244;SDS011;5167;52.164;10.530;2023-02-13T09:02:13;5.90;;;3.20;;
10244;SDS011;5167;52.164;10.530;2023-02-13T09:04:38;5.23;;;2.53;;
10244;SDS011;5167;52.164;10.530;2023-02-13T09:07:04;4.03;;;2.60;;
10244;SDS011;5167;52.164;10.530;2023-02-13T09:09:30;4.87;;;2.23;;
10244;SDS011;5167;52.164;10.530;2023-02-13T09:11:56;2.53;;;2.10;;
10244;SDS011;5167;52.164;10.530;2023-02-13T09:14:22;3.67;;;1.90;;
10244;SDS011;5167;52.164;10.530;2023-02-13T09:16:48;2.60;;;2.30;;
10244;SDS011;5167;52.164;10.530;2023-02-13T09:19:14;2.67;;;1.80;;
10244;SDS011;5167;52.164;10.530;2023-02-13T09:21:40;2.53;;;2.00;;
10244;SDS011;5167;52.164;10.530;2023-02-13T09:24:06;2.33;;;2.00;;
10244;SDS011;5167;52.164;10.530;2023-02-13T09:26:33;3.27;;;1.70;;
10244;SDS011;5167;52.164;10.530;2023-02-13T09:28:58;1.70;;;1.60;;
10244;SDS011;5167;52.164;10.530;2023-02-13T09:31:24;1.70;;;1.60;;
10244;SDS011;5167;52.164;10.530;2023-02-13T09:33:50;1.47;;;1.30;;
10244;SDS011;5167;52.164;10.530;2023-02-13T09:36:16;1.80;;;1.37;;
10244;SDS011;5167;52.164;10.530;2023-02-13T09:38:51;2.13;;;2.03;;
10244;SDS011;5167;52.164;10.530;2023-02-13T09:41:20;1.27;;;1.20;;
10244;SDS011;5167;52.164;10.530;2023-02-13T09:43:56;1.70;;;1.60;;
10244;SDS011;5167;52.164;10.530;2023-02-13T09:46:36;3.30;;;1.40;;
10244;SDS011;5167;52.164;10.530;2023-02-13T09:49:17;2.27;;;1.57;;
10244;SDS011;5167;52.164;10.530;2023-02-13T09:51:47;1.70;;;1.60;;
10244;SDS011;5167;52.164;10.530;2023-02-13T09:54:21;1.83;;;1.50;;
10244;SDS011;5167;52.164;10.530;2023-02-13T10:13:25;1.40;;;1.30;;
10244;SDS011;5167;52.164;10.530;2023-02-13T10:18:44;1.10;;;1.10;;
10244;SDS011;5167;52.164;10.530;2023-02-13T10:21:14;1.20;;;1.10;;
10244;SDS011;5167;52.164;10.530;2023-02-13T10:26:35;0.97;;;0.97;;
10244;SDS011;5167;52.164;10.530;2023-02-13T10:32:09;2.00;;;1.10;;
10244;SDS011;5167;52.164;10.530;2023-02-13T10:34:45;2.30;;;0.70;;
10244;SDS011;5167;52.164;10.530;2023-02-13T10:37:17;2.10;;;1.20;;
10244;SDS011;5167;52.164;10.530;2023-02-13T10:39:46;1.20;;;1.20;;
10244;SDS011;5167;52.164;10.530;2023-02-13T10:50:22;1.67;;;1.13;;
10244;SDS011;5167;52.164;10.530;2023-02-13T11:03:24;0.90;;;0.90;;
10244;SDS011;5167;52.164;10.530;2023-02-13T11:05:51;1.43;;;0.80;;
10244;SDS011;5167;52.164;10.530;2023-02-13T11:09:00;0.80;;;0.60;;
10244;SDS011;5167;52.164;10.530;2023-02-13T11:16:40;0.63;;;0.63;;
10244;SDS011;5167;52.164;10.530;2023-02-13T11:19:34;1.00;;;0.87;;
10244;SDS011;5167;52.164;10.530;2023-02-13T11:22:04;2.50;;;2.30;;
10244;SDS011;5167;52.164;10.530;2023-02-13T11:24:35;3.03;;;2.83;;
10244;SDS011;5167;52.164;10.530;2023-02-13T11:27:05;1.60;;;1.50;;
10244;SDS011;5167;52.164;10.530;2023-02-13T11:29:34;1.80;;;1.70;;
10244;SDS011;5167;52.164;10.530;2023-02-13T11:34:30;27.43;;;11.73;;
10244;SDS011;5167;52.164;10.530;2023-02-13T11:37:18;15.77;;;6.53;;
10244;SDS011;5167;52.164;10.530;2023-02-13T11:39:47;2.43;;;2.00;;
10244;SDS011;5167;52.164;10.530;2023-02-13T11:45:00;6.80;;;3.10;;
10244;SDS011;5167;52.164;10.530;2023-02-13T11:49:59;16.63;;;10.23;;
10244;SDS011;5167;52.164;10.530;2023-02-13T11:52:26;5.63;;;4.07;;
10244;SDS011;5167;52.164;10.530;2023-02-13T11:54:58;2.80;;;2.20;;
10244;SDS011;5167;52.164;10.530;2023-02-13T11:57:30;5.07;;;2.33;;
10244;SDS011;5167;52.164;10.530;2023-02-13T12:00:01;2.10;;;1.47;;
10244;SDS011;5167;52.164;10.530;2023-02-13T12:02:54;3.83;;;2.87;;
10244;SDS011;5167;52.164;10.530;2023-02-13T12:05:22;3.93;;;1.70;;
10244;SDS011;5167;52.164;10.530;2023-02-13T12:07:49;2.40;;;1.70;;
10244;SDS011;5167;52.164;10.530;2023-02-13T12:10:17;1.63;;;1.53;;
10244;SDS011;5167;52.164;10.530;2023-02-13T12:12:50;2.43;;;1.70;;
10244;SDS011;5167;52.164;10.530;2023-02-13T12:15:27;1.60;;;1.50;;
10244;SDS011;5167;52.164;10.530;2023-02-13T12:39:40;5.00;;;3.40;;
10244;SDS011;5167;52.164;10.530;2023-02-13T12:42:21;4.37;;;3.50;;
10244;SDS011;5167;52.164;10.530;2023-02-13T12:47:45;4.37;;;2.10;;
10244;SDS011;5167;52.164;10.530;2023-02-13T12:53:03;1.60;;;1.50;;
10244;SDS011;5167;52.164;10.530;2023-02-13T13:01:11;2.57;;;2.37;;
10244;SDS011;5167;52.164;10.530;2023-02-13T13:09:45;1.73;;;1.60;;
10244;SDS011;5167;52.164;10.530;2023-02-13T13:12:29;1.60;;;1.50;;
10244;SDS011;5167;52.164;10.530;2023-02-13T13:17:53;3.03;;;1.73;;
10244;SDS011;5167;52.164;10.530;2023-02-13T13:21:15;2.80;;;1.20;;
10244;SDS011;5167;52.164;10.530;2023-02-13T13:23:36;1.50;;;1.40;;
10244;SDS011;5167;52.164;10.530;2023-02-13T13:26:29;1.60;;;1.50;;
10244;SDS011;5167;52.164;10.530;2023-02-13T13:28:59;3.87;;;2.00;;
10244;SDS011;5167;52.164;10.530;2023-02-13T13:31:27;2.50;;;1.93;;
10244;SDS011;5167;52.164;10.530;2023-02-13T13:33:55;2.47;;;1.80;;
10244;SDS011;5167;52.164;10.530;2023-02-13T13:44:21;2.07;;;1.80;;
10244;SDS011;5167;52.164;10.530;2023-02-13T13:54:59;2.67;;;1.50;;
10244;SDS011;5167;52.164;10.530;2023-02-13T14:02:39;3.70;;;3.40;;
10244;SDS011;5167;52.164;10.530;2023-02-13T14:07:48;3.90;;;3.30;;
10244;SDS011;5167;52.164;10.530;2023-02-13T14:10:57;5.40;;;3.93;;
10244;SDS011;5167;52.164;10.530;2023-02-13T14:13:27;5.70;;;3.17;;
10244;SDS011;5167;52.164;10.530;2023-02-13T14:15:55;2.90;;;2.40;;
10244;SDS011;5167;52.164;10.530;2023-02-13T14:18:21;3.30;;;3.00;;
10244;SDS011;5167;52.164;10.530;2023-02-13T14:20:50;3.60;;;2.80;;
10244;SDS011;5167;52.164;10.530;2023-02-13T14:28:40;3.57;;;2.30;;
10244;SDS011;5167;52.164;10.530;2023-02-13T14:31:30;3.63;;;2.30;;
10244;SDS011;5167;52.164;10.530;2023-02-13T14:34:03;2.67;;;2.33;;
10244;SDS011;5167;52.164;10.530;2023-02-13T14:36:32;5.10;;;2.67;;
10244;SDS011;5167;52.164;10.530;2023-02-13T14:39:02;2.90;;;2.23;;
10244;SDS011;5167;52.164;10.530;2023-02-13T14:44:11;4.30;;;2.83;;
10244;SDS011;5167;52.164;10.530;2023-02-13T14:46:43;3.83;;;2.70;;
10244;SDS011;5167;52.164;10.530;2023-02-13T14:51:57;3.80;;;2.50;;
10244;SDS011;5167;52.164;10.530;2023-02-13T14:54:26;3.47;;;2.40;;
10244;SDS011;5167;52.164;10.530;2023-02-13T14:57:13;7.83;;;2.77;;
10244;SDS011;5167;52.164;10.530;2023-02-13T15:02:50;4.73;;;2.80;;
10244;SDS011;5167;52.164;10.530;2023-02-13T15:05:20;3.60;;;2.70;;
10244;SDS011;5167;52.164;10.530;2023-02-13T15:07:53;3.27;;;2.33;;
10244;SDS011;5167;52.164;10.530;2023-02-13T15:10:42;2.27;;;2.03;;
10244;SDS011;5167;52.164;10.530;2023-02-13T15:13:53;3.67;;;2.70;;
10244;SDS011;5167;52.164;10.530;2023-02-13T15:16:05;2.83;;;2.50;;
10244;SDS011;5167;52.164;10.530;2023-02-13T15:18:40;4.07;;;2.73;;
10244;SDS011;5167;52.164;10.530;2023-02-13T15:21:13;7.33;;;2.90;;
10244;SDS011;5167;52.164;10.530;2023-02-13T15:23:41;4.17;;;2.67;;
10244;SDS011;5167;52.164;10.530;2023-02-13T15:26:17;3.57;;;2.80;;
10244;SDS011;5167;52.164;10.530;2023-02-13T15:29:03;4.53;;;3.33;;
10244;SDS011;5167;52.164;10.530;2023-02-13T15:31:41;3.70;;;3.20;;
10244;SDS011;5167;52.164;10.530;2023-02-13T15:34:17;3.73;;;2.60;;
10244;SDS011;5167;52.164;10.530;2023-02-13T15:36:44;3.83;;;3.27;;
10244;SDS011;5167;52.164;10.530;2023-02-13T15:39:14;4.87;;;3.10;;
10244;SDS011;5167;52.164;10.530;2023-02-13T15:41:44;5.20;;;3.03;;
10244;SDS011;5167;52.164;10.530;2023-02-13T15:44:24;6.07;;;3.10;;
10244;SDS011;5167;52.164;10.530;2023-02-13T15:47:01;4.40;;;2.83;;
10244;SDS011;5167;52.164;10.530;2023-02-13T15:49:27;4.97;;;2.90;;
10244;SDS011;5167;52.164;10.530;2023-02-13T15:52:02;4.47;;;2.93;;
10244;SDS011;5167;52.164;10.530;2023-02-13T15:54:46;4.60;;;3.43;;
10244;SDS011;5167;52.164;10.530;2023-02-13T15:57:16;5.40;;;3.57;;
10244;SDS011;5167;52.164;10.530;2023-02-13T15:59:46;7.80;;;4.10;;
10244;SDS011;5167;52.164;10.530;2023-02-13T16:02:14;4.60;;;3.23;;
10244;SDS011;5167;52.164;10.530;2023-02-13T16:04:46;4.07;;;3.07;;
10244;SDS011;5167;52.164;10.530;2023-02-13T16:07:15;3.90;;;2.83;;
10244;SDS011;5167;52.164;10.530;2023-02-13T16:09:41;4.63;;;3.27;;
10244;SDS011;5167;52.164;10.530;2023-02-13T16:15:00;6.63;;;3.43;;
10244;SDS011;5167;52.164;10.530;2023-02-13T16:17:34;6.90;;;3.60;;
10244;SDS011;5167;52.164;10.530;2023-02-13T16:22:37;5.23;;;3.53;;
10244;SDS011;5167;52.164;10.530;2023-02-13T16:27:41;5.30;;;3.83;;
10244;SDS011;5167;52.164;10.530;2023-02-13T16:32:47;9.33;;;3.70;;
10244;SDS011;5167;52.164;10.530;2023-02-13T16:35:29;7.33;;;3.83;;
10244;SDS011;5167;52.164;10.530;2023-02-13T16:37:59;5.27;;;3.20;;
10244;SDS011;5167;52.164;10.530;2023-02-13T16:49:12;7.10;;;4.03;;
10244;SDS011;5167;52.164;10.530;2023-02-13T16:51:42;4.73;;;3.87;;
10244;SDS011;5167;52.164;10.530;2023-02-13T17:07:33;5.37;;;4.47;;
10244;SDS011;5167;52.164;10.530;2023-02-13T17:10:03;6.67;;;4.67;;
10244;SDS011;5167;52.164;10.530;2023-02-13T17:12:29;7.07;;;3.80;;
10244;SDS011;5167;52.164;10.530;2023-02-13T17:14:57;8.70;;;4.40;;
10244;SDS011;5167;52.164;10.530;2023-02-13T17:17:25;6.23;;;4.70;;
10244;SDS011;5167;52.164;10.530;2023-02-13T17:19:52;7.67;;;5.40;;
10244;SDS011;5167;52.164;10.530;2023-02-13T17:22:19;8.60;;;5.20;;
10244;SDS011;5167;52.164;10.530;2023-02-13T17:24:57;8.33;;;4.97;;
10244;SDS011;5167;52.164;10.530;2023-02-13T17:27:25;7.23;;;4.77;;
10244;SDS011;5167;52.164;10.530;2023-02-13T17:29:51;8.70;;;5.87;;
10244;SDS011;5167;52.164;10.530;2023-02-13T17:32:18;7.73;;;4.77;;
10244;SDS011;5167;52.164;10.530;2023-02-13T17:34:47;6.93;;;5.23;;
10244;SDS011;5167;52.164;10.530;2023-02-13T17:37:14;7.10;;;5.20;;
10244;SDS011;5167;52.164;10.530;2023-02-13T17:39:42;7.47;;;5.03;;
10244;SDS011;5167;52.164;10.530;2023-02-13T17:42:10;8.50;;;5.40;;
10244;SDS011;5167;52.164;10.530;2023-02-13T17:44:41;7.00;;;5.10;;
10244;SDS011;5167;52.164;10.530;2023-02-13T17:47:06;10.43;;;5.07;;
10244;SDS011;5167;52.164;10.530;2023-02-13T17:49:32;8.80;;;5.40;;
10244;SDS011;5167;52.164;10.530;2023-02-13T17:51:57;5.90;;;4.70;;
10244;SDS011;5167;52.164;10.530;2023-02-13T17:54:23;6.70;;;4.83;;
10244;SDS011;5167;52.164;10.530;2023-02-13T17:56:49;7.53;;;5.20;;
10244;SDS011;5167;52.164;10.530;2023-02-13T17:59:14;5.93;;;4.43;;
10244;SDS011;5167;52.164;10.530;2023-02-13T18:01:40;9.37;;;5.07;;
10244;SDS011;5167;52.164;10.530;2023-02-13T18:04:09;12.47;;;7.93;;
10244;SDS011;5167;52.164;10.530;2023-02-13T18:06:34;12.63;;;6.67;;
10244;SDS011;5167;52.164;10.530;2023-02-13T18:09:00;11.60;;;7.50;;
10244;SDS011;5167;52.164;10.530;2023-02-13T18:11:26;12.70;;;7.60;;
10244;SDS011;5167;52.164;10.530;2023-02-13T18:13:51;10.70;;;6.07;;
10244;SDS011;5167;52.164;10.530;2023-02-13T18:16:17;9.17;;;5.80;;
10244;SDS011;5167;52.164;10.530;2023-02-13T18:18:42;9.63;;;5.93;;
10244;SDS011;5167;52.164;10.530;2023-02-13T18:21:08;10.33;;;6.57;;
10244;SDS011;5167;52.164;10.530;2023-02-13T18:23:34;7.57;;;5.83;;
10244;SDS011;5167;52.164;10.530;2023-02-13T18:26:07;8.97;;;5.30;;
10244;SDS011;5167;52.164;10.530;2023-02-13T18:28:34;8.03;;;4.83;;
10244;SDS011;5167;52.164;10.530;2023-02-13T18:31:00;11.50;;;6.17;;
10244;SDS011;5167;52.164;10.530;2023-02-13T18:33:26;7.57;;;5.17;;
10244;SDS011;5167;52.164;10.530;2023-02-13T18:35:56;10.33;;;6.93;;
10244;SDS011;5167;52.164;10.530;2023-02-13T18:38:26;8.87;;;6.60;;
10244;SDS011;5167;52.164;10.530;2023-02-13T18:40:52;10.53;;;6.73;;
10244;SDS011;5167;52.164;10.530;2023-02-13T18:43:18;11.00;;;6.90;;